sensor_id;sensor_type;location;lat;lon;timestamp;P1;durP1;ratioP1;P2;durP2;ratioP2
84113;SDS011;74483;48.846;2.358;2024-02-16T00:00:16;2.80;;;1.98;;
84113;SDS011;74483;48.846;2.358;2024-02-16T00:02:42;2.33;;;2.00;;
84113;SDS011;74483;48.846;2.358;2024-02-16T00:05:09;4.57;;;1.85;;
84113;SDS011;74483;48.846;2.358;2024-02-16T00:07:36;1.90;;;1.80;;
84113;SDS011;74483;48.846;2.358;2024-02-16T00:10:05;3.00;;;1.98;;
84113;SDS011;74483;48.846;2.358;2024-02-16T00:12:31;2.67;;;1.85;;
84113;SDS011;74483;48.846;2.358;2024-02-16T00:14:58;2.42;;;1.77;;
84113;SDS011;74483;48.846;2.358;2024-02-16T00:17:24;2.30;;;2.00;;
84113;SDS011;74483;48.846;2.358;2024-02-16T00:19:53;2.28;;;1.80;;
84113;SDS011;74483;48.846;2.358;2024-02-16T00:22:19;2.22;;;1.88;;
84113;SDS011;74483;48.846;2.358;2024-02-16T00:24:45;2.90;;;2.10;;
84113;SDS011;74483;48.846;2.358;2024-02-16T00:27:11;2.05;;;1.70;;
84113;SDS011;74483;48.846;2.358;2024-02-16T00:29:37;2.42;;;1.90;;
84113;SDS011;74483;48.846;2.358;2024-02-16T00:32:05;2.85;;;1.83;;
84113;SDS011;74483;48.846;2.358;2024-02-16T00:34:35;2.33;;;2.10;;
84113;SDS011;74483;48.846;2.358;2024-02-16T00:37:01;2.25;;;1.80;;
84113;SDS011;74483;48.846;2.358;2024-02-16T00:39:28;2.17;;;1.80;;
84113;SDS011;74483;48.846;2.358;2024-02-16T00:41:54;2.28;;;1.98;;
84113;SDS011;74483;48.846;2.358;2024-02-16T00:44:20;2.28;;;1.80;;
84113;SDS011;74483;48.846;2.358;2024-02-16T00:46:46;2.50;;;1.98;;
84113;SDS011;74483;48.846;2.358;2024-02-16T00:49:11;2.38;;;1.80;;
84113;SDS011;74483;48.846;2.358;2024-02-16T00:51:37;3.78;;;2.08;;
84113;SDS011;74483;48.846;2.358;2024-02-16T00:54:03;2.42;;;1.98;;
84113;SDS011;74483;48.846;2.358;2024-02-16T00:56:30;1.95;;;1.70;;
84113;SDS011;74483;48.846;2.358;2024-02-16T00:58:56;2.72;;;2.08;;
84113;SDS011;74483;48.846;2.358;2024-02-16T01:01:21;2.17;;;1.88;;
84113;SDS011;74483;48.846;2.358;2024-02-16T01:03:48;2.35;;;1.90;;
84113;SDS011;74483;48.846;2.358;2024-02-16T01:06:14;2.53;;;1.88;;
84113;SDS011;74483;48.846;2.358;2024-02-16T01:08:40;2.20;;;1.80;;
84113;SDS011;74483;48.846;2.358;2024-02-16T01:11:06;2.45;;;1.88;;
84113;SDS011;74483;48.846;2.358;2024-02-16T01:13:32;3.00;;;2.00;;
84113;SDS011;74483;48.846;2.358;2024-02-16T01:15:58;2.42;;;1.80;;
84113;SDS011;74483;48.846;2.358;2024-02-16T01:18:24;1.63;;;1.42;;
84113;SDS011;74483;48.846;2.358;2024-02-16T01:20:51;2.47;;;1.80;;
84113;SDS011;74483;48.846;2.358;2024-02-16T01:23:16;2.20;;;1.80;;
84113;SDS011;74483;48.846;2.358;2024-02-16T01:25:42;2.13;;;1.58;;
84113;SDS011;74483;48.846;2.358;2024-02-16T01:28:08;1.90;;;1.60;;
84113;SDS011;74483;48.846;2.358;2024-02-16T01:30:33;3.67;;;1.90;;
84113;SDS011;74483;48.846;2.358;2024-02-16T01:32:59;2.70;;;1.75;;
84113;SDS011;74483;48.846;2.358;2024-02-16T01:35:24;2.92;;;1.75;;
84113;SDS011;74483;48.846;2.358;2024-02-16T01:37:50;2.10;;;1.60;;
84113;SDS011;74483;48.846;2.358;2024-02-16T01:40:15;2.17;;;1.70;;
84113;SDS011;74483;48.846;2.358;2024-02-16T01:42:47;2.25;;;1.70;;
84113;SDS011;74483;48.846;2.358;2024-02-16T01:45:13;2.08;;;1.63;;
84113;SDS011;74483;48.846;2.358;2024-02-16T01:47:39;1.95;;;1.60;;
84113;SDS011;74483;48.846;2.358;2024-02-16T01:50:07;2.83;;;1.70;;
84113;SDS011;74483;48.846;2.358;2024-02-16T01:52:34;3.17;;;1.70;;
84113;SDS011;74483;48.846;2.358;2024-02-16T01:55:02;2.38;;;1.80;;
84113;SDS011;74483;48.846;2.358;2024-02-16T01:57:38;2.10;;;1.77;;
84113;SDS011;74483;48.846;2.358;2024-02-16T02:00:04;2.17;;;1.52;;
84113;SDS011;74483;48.846;2.358;2024-02-16T02:02:33;1.95;;;1.75;;
84113;SDS011;74483;48.846;2.358;2024-02-16T02:04:59;1.90;;;1.67;;
84113;SDS011;74483;48.846;2.358;2024-02-16T02:07:25;1.98;;;1.63;;
84113;SDS011;74483;48.846;2.358;2024-02-16T02:09:52;2.40;;;1.70;;
84113;SDS011;74483;48.846;2.358;2024-02-16T02:12:18;2.25;;;1.70;;
84113;SDS011;74483;48.846;2.358;2024-02-16T02:14:44;2.20;;;1.55;;
84113;SDS011;74483;48.846;2.358;2024-02-16T02:17:10;2.13;;;1.75;;
84113;SDS011;74483;48.846;2.358;2024-02-16T02:19:35;2.45;;;1.60;;
84113;SDS011;74483;48.846;2.358;2024-02-16T02:22:01;1.90;;;1.50;;
84113;SDS011;74483;48.846;2.358;2024-02-16T02:24:26;2.92;;;1.65;;
84113;SDS011;74483;48.846;2.358;2024-02-16T02:26:52;2.03;;;1.83;;
84113;SDS011;74483;48.846;2.358;2024-02-16T02:29:18;2.83;;;1.75;;
84113;SDS011;74483;48.846;2.358;2024-02-16T02:31:44;1.98;;;1.70;;
84113;SDS011;74483;48.846;2.358;2024-02-16T02:34:10;2.22;;;1.65;;
84113;SDS011;74483;48.846;2.358;2024-02-16T02:36:36;1.88;;;1.50;;
84113;SDS011;74483;48.846;2.358;2024-02-16T02:39:01;2.65;;;1.77;;
84113;SDS011;74483;48.846;2.358;2024-02-16T02:41:27;1.73;;;1.60;;
84113;SDS011;74483;48.846;2.358;2024-02-16T02:43:52;2.47;;;1.70;;
84113;SDS011;74483;48.846;2.358;2024-02-16T02:46:18;3.15;;;1.88;;
84113;SDS011;74483;48.846;2.358;2024-02-16T02:48:44;1.85;;;1.48;;
84113;SDS011;74483;48.846;2.358;2024-02-16T02:51:10;2.70;;;1.63;;
84113;SDS011;74483;48.846;2.358;2024-02-16T02:53:36;2.17;;;1.60;;
84113;SDS011;74483;48.846;2.358;2024-02-16T02:56:02;1.83;;;1.60;;
84113;SDS011;74483;48.846;2.358;2024-02-16T02:58:28;1.73;;;1.50;;
84113;SDS011;74483;48.846;2.358;2024-02-16T03:00:54;2.78;;;1.75;;
84113;SDS011;74483;48.846;2.358;2024-02-16T03:03:20;2.08;;;1.70;;
84113;SDS011;74483;48.846;2.358;2024-02-16T03:05:46;1.75;;;1.58;;
84113;SDS011;74483;48.846;2.358;2024-02-16T03:08:12;2.85;;;1.60;;
84113;SDS011;74483;48.846;2.358;2024-02-16T03:10:37;1.90;;;1.40;;
84113;SDS011;74483;48.846;2.358;2024-02-16T03:13:04;1.90;;;1.65;;
84113;SDS011;74483;48.846;2.358;2024-02-16T03:15:32;1.92;;;1.58;;
84113;SDS011;74483;48.846;2.358;2024-02-16T03:17:58;2.63;;;1.60;;
84113;SDS011;74483;48.846;2.358;2024-02-16T03:20:24;2.38;;;1.70;;
84113;SDS011;74483;48.846;2.358;2024-02-16T03:22:50;2.10;;;1.50;;
84113;SDS011;74483;48.846;2.358;2024-02-16T03:25:15;2.00;;;1.58;;
84113;SDS011;74483;48.846;2.358;2024-02-16T03:27:41;3.47;;;1.75;;
84113;SDS011;74483;48.846;2.358;2024-02-16T03:30:08;2.15;;;1.70;;
84113;SDS011;74483;48.846;2.358;2024-02-16T03:32:34;3.42;;;1.77;;
84113;SDS011;74483;48.846;2.358;2024-02-16T03:34:59;2.10;;;1.55;;
84113;SDS011;74483;48.846;2.358;2024-02-16T03:37:25;2.30;;;1.63;;
84113;SDS011;74483;48.846;2.358;2024-02-16T03:39:51;2.33;;;1.58;;
84113;SDS011;74483;48.846;2.358;2024-02-16T03:42:18;2.15;;;1.50;;
84113;SDS011;74483;48.846;2.358;2024-02-16T03:44:44;1.65;;;1.40;;
84113;SDS011;74483;48.846;2.358;2024-02-16T03:47:10;2.67;;;1.70;;
84113;SDS011;74483;48.846;2.358;2024-02-16T03:49:36;2.17;;;1.60;;
84113;SDS011;74483;48.846;2.358;2024-02-16T03:52:02;1.80;;;1.42;;
84113;SDS011;74483;48.846;2.358;2024-02-16T03:54:28;2.10;;;1.70;;
84113;SDS011;74483;48.846;2.358;2024-02-16T03:56:54;1.67;;;1.58;;
84113;SDS011;74483;48.846;2.358;2024-02-16T03:59:20;3.03;;;1.70;;
84113;SDS011;74483;48.846;2.358;2024-02-16T04:01:46;2.00;;;1.60;;
84113;SDS011;74483;48.846;2.358;2024-02-16T04:04:12;1.95;;;1.50;;
84113;SDS011;74483;48.846;2.358;2024-02-16T04:06:38;1.80;;;1.40;;
84113;SDS011;74483;48.846;2.358;2024-02-16T04:09:04;2.33;;;1.70;;
84113;SDS011;74483;48.846;2.358;2024-02-16T04:11:33;3.25;;;1.58;;
84113;SDS011;74483;48.846;2.358;2024-02-16T04:14:00;1.75;;;1.52;;
84113;SDS011;74483;48.846;2.358;2024-02-16T04:16:25;2.22;;;1.80;;
84113;SDS011;74483;48.846;2.358;2024-02-16T04:18:51;1.63;;;1.52;;
84113;SDS011;74483;48.846;2.358;2024-02-16T04:21:17;1.73;;;1.60;;
84113;SDS011;74483;48.846;2.358;2024-02-16T04:23:43;1.92;;;1.70;;
84113;SDS011;74483;48.846;2.358;2024-02-16T04:26:09;1.83;;;1.50;;
84113;SDS011;74483;48.846;2.358;2024-02-16T04:28:35;2.08;;;1.60;;
84113;SDS011;74483;48.846;2.358;2024-02-16T04:31:01;2.85;;;1.73;;
84113;SDS011;74483;48.846;2.358;2024-02-16T04:33:27;2.38;;;1.70;;
84113;SDS011;74483;48.846;2.358;2024-02-16T04:35:52;4.00;;;1.67;;
84113;SDS011;74483;48.846;2.358;2024-02-16T04:38:18;2.22;;;1.42;;
84113;SDS011;74483;48.846;2.358;2024-02-16T04:40:44;2.85;;;1.73;;
84113;SDS011;74483;48.846;2.358;2024-02-16T04:43:11;1.88;;;1.40;;
84113;SDS011;74483;48.846;2.358;2024-02-16T04:45:36;1.67;;;1.55;;
84113;SDS011;74483;48.846;2.358;2024-02-16T04:48:03;2.08;;;1.67;;
84113;SDS011;74483;48.846;2.358;2024-02-16T04:50:32;1.60;;;1.40;;
84113;SDS011;74483;48.846;2.358;2024-02-16T04:52:58;1.90;;;1.70;;
84113;SDS011;74483;48.846;2.358;2024-02-16T04:55:26;2.22;;;1.60;;
84113;SDS011;74483;48.846;2.358;2024-02-16T04:57:53;1.83;;;1.63;;
84113;SDS011;74483;48.846;2.358;2024-02-16T05:00:19;1.77;;;1.60;;
84113;SDS011;74483;48.846;2.358;2024-02-16T05:02:45;2.60;;;1.70;;
84113;SDS011;74483;48.846;2.358;2024-02-16T05:05:11;1.98;;;1.55;;
84113;SDS011;74483;48.846;2.358;2024-02-16T05:07:37;2.67;;;1.73;;
84113;SDS011;74483;48.846;2.358;2024-02-16T05:10:02;2.42;;;1.42;;
84113;SDS011;74483;48.846;2.358;2024-02-16T05:12:29;1.77;;;1.40;;
84113;SDS011;74483;48.846;2.358;2024-02-16T05:14:54;1.92;;;1.40;;
84113;SDS011;74483;48.846;2.358;2024-02-16T05:17:20;2.35;;;1.58;;
84113;SDS011;74483;48.846;2.358;2024-02-16T05:19:47;2.50;;;1.70;;
84113;SDS011;74483;48.846;2.358;2024-02-16T05:22:13;2.08;;;1.67;;
84113;SDS011;74483;48.846;2.358;2024-02-16T05:24:39;1.90;;;1.60;;
84113;SDS011;74483;48.846;2.358;2024-02-16T05:27:05;2.83;;;1.65;;
84113;SDS011;74483;48.846;2.358;2024-02-16T05:29:30;2.00;;;1.58;;
84113;SDS011;74483;48.846;2.358;2024-02-16T05:31:56;2.03;;;1.45;;
84113;SDS011;74483;48.846;2.358;2024-02-16T05:34:22;2.65;;;1.80;;
84113;SDS011;74483;48.846;2.358;2024-02-16T05:36:47;1.95;;;1.48;;
84113;SDS011;74483;48.846;2.358;2024-02-16T05:39:14;2.80;;;1.70;;
84113;SDS011;74483;48.846;2.358;2024-02-16T05:41:51;1.70;;;1.50;;
84113;SDS011;74483;48.846;2.358;2024-02-16T05:44:18;1.80;;;1.40;;
84113;SDS011;74483;48.846;2.358;2024-02-16T05:46:44;2.58;;;1.65;;
84113;SDS011;74483;48.846;2.358;2024-02-16T05:49:10;3.10;;;1.85;;
84113;SDS011;74483;48.846;2.358;2024-02-16T05:51:39;2.00;;;1.45;;
84113;SDS011;74483;48.846;2.358;2024-02-16T05:54:05;2.40;;;1.60;;
84113;SDS011;74483;48.846;2.358;2024-02-16T05:56:33;2.50;;;1.58;;
84113;SDS011;74483;48.846;2.358;2024-02-16T05:58:59;2.28;;;1.58;;
84113;SDS011;74483;48.846;2.358;2024-02-16T06:01:25;2.35;;;1.60;;
84113;SDS011;74483;48.846;2.358;2024-02-16T06:03:52;1.95;;;1.52;;
84113;SDS011;74483;48.846;2.358;2024-02-16T06:06:18;2.22;;;1.55;;
84113;SDS011;74483;48.846;2.358;2024-02-16T06:08:44;1.98;;;1.42;;
84113;SDS011;74483;48.846;2.358;2024-02-16T06:11:09;2.47;;;1.55;;
84113;SDS011;74483;48.846;2.358;2024-02-16T06:13:35;1.60;;;1.50;;
84113;SDS011;74483;48.846;2.358;2024-02-16T06:16:00;1.77;;;1.30;;
84113;SDS011;74483;48.846;2.358;2024-02-16T06:18:26;1.55;;;1.38;;
84113;SDS011;74483;48.846;2.358;2024-02-16T06:20:54;1.98;;;1.25;;
84113;SDS011;74483;48.846;2.358;2024-02-16T06:23:20;2.75;;;1.50;;
84113;SDS011;74483;48.846;2.358;2024-02-16T06:25:46;2.20;;;1.73;;
84113;SDS011;74483;48.846;2.358;2024-02-16T06:28:11;2.10;;;1.40;;
84113;SDS011;74483;48.846;2.358;2024-02-16T06:30:37;2.20;;;1.60;;
84113;SDS011;74483;48.846;2.358;2024-02-16T06:33:02;2.75;;;1.63;;
84113;SDS011;74483;48.846;2.358;2024-02-16T06:35:29;1.92;;;1.40;;
84113;SDS011;74483;48.846;2.358;2024-02-16T06:37:55;3.63;;;1.60;;
84113;SDS011;74483;48.846;2.358;2024-02-16T06:40:20;1.40;;;1.20;;
84113;SDS011;74483;48.846;2.358;2024-02-16T06:42:46;2.35;;;1.30;;
84113;SDS011;74483;48.846;2.358;2024-02-16T06:45:12;1.88;;;1.42;;
84113;SDS011;74483;48.846;2.358;2024-02-16T06:47:37;1.80;;;1.50;;
84113;SDS011;74483;48.846;2.358;2024-02-16T06:50:03;1.33;;;1.20;;
84113;SDS011;74483;48.846;2.358;2024-02-16T06:52:29;1.42;;;1.30;;
84113;SDS011;74483;48.846;2.358;2024-02-16T06:54:54;1.70;;;1.45;;
84113;SDS011;74483;48.846;2.358;2024-02-16T06:57:20;2.38;;;1.70;;
84113;SDS011;74483;48.846;2.358;2024-02-16T06:59:46;2.72;;;1.40;;
84113;SDS011;74483;48.846;2.358;2024-02-16T07:02:12;2.17;;;1.38;;
84113;SDS011;74483;48.846;2.358;2024-02-16T07:04:41;2.38;;;1.65;;
84113;SDS011;74483;48.846;2.358;2024-02-16T07:07:07;2.45;;;1.42;;
84113;SDS011;74483;48.846;2.358;2024-02-16T07:09:33;1.80;;;1.40;;
84113;SDS011;74483;48.846;2.358;2024-02-16T07:12:00;2.53;;;1.60;;
84113;SDS011;74483;48.846;2.358;2024-02-16T07:14:26;2.53;;;1.60;;
84113;SDS011;74483;48.846;2.358;2024-02-16T07:16:51;1.73;;;1.35;;
84113;SDS011;74483;48.846;2.358;2024-02-16T07:19:17;3.78;;;1.50;;
84113;SDS011;74483;48.846;2.358;2024-02-16T07:21:43;2.38;;;1.30;;
84113;SDS011;74483;48.846;2.358;2024-02-16T07:24:09;1.95;;;1.48;;
84113;SDS011;74483;48.846;2.358;2024-02-16T07:26:35;2.67;;;1.50;;
84113;SDS011;74483;48.846;2.358;2024-02-16T07:29:01;3.38;;;1.58;;
84113;SDS011;74483;48.846;2.358;2024-02-16T07:31:32;2.78;;;1.33;;
84113;SDS011;74483;48.846;2.358;2024-02-16T07:33:58;1.90;;;1.40;;
84113;SDS011;74483;48.846;2.358;2024-02-16T07:36:24;2.25;;;1.40;;
84113;SDS011;74483;48.846;2.358;2024-02-16T07:38:50;2.17;;;1.40;;
84113;SDS011;74483;48.846;2.358;2024-02-16T07:41:15;2.65;;;1.30;;
84113;SDS011;74483;48.846;2.358;2024-02-16T07:43:41;3.15;;;1.30;;
84113;SDS011;74483;48.846;2.358;2024-02-16T07:46:07;2.20;;;1.55;;
84113;SDS011;74483;48.846;2.358;2024-02-16T07:48:33;1.65;;;1.35;;
84113;SDS011;74483;48.846;2.358;2024-02-16T07:51:00;1.80;;;1.40;;
84113;SDS011;74483;48.846;2.358;2024-02-16T07:53:27;2.80;;;1.35;;
84113;SDS011;74483;48.846;2.358;2024-02-16T07:55:53;1.95;;;1.60;;
84113;SDS011;74483;48.846;2.358;2024-02-16T07:58:19;1.50;;;1.40;;
84113;SDS011;74483;48.846;2.358;2024-02-16T08:00:45;2.75;;;1.30;;
84113;SDS011;74483;48.846;2.358;2024-02-16T08:03:10;2.67;;;1.40;;
84113;SDS011;74483;48.846;2.358;2024-02-16T08:05:36;1.33;;;1.17;;
84113;SDS011;74483;48.846;2.358;2024-02-16T08:08:02;2.70;;;1.33;;
84113;SDS011;74483;48.846;2.358;2024-02-16T08:10:28;1.73;;;1.33;;
84113;SDS011;74483;48.846;2.358;2024-02-16T08:12:53;2.20;;;1.35;;
84113;SDS011;74483;48.846;2.358;2024-02-16T08:15:19;2.58;;;1.50;;
84113;SDS011;74483;48.846;2.358;2024-02-16T08:17:48;2.33;;;1.48;;
84113;SDS011;74483;48.846;2.358;2024-02-16T08:20:15;3.22;;;1.60;;
84113;SDS011;74483;48.846;2.358;2024-02-16T08:22:41;2.28;;;1.30;;
84113;SDS011;74483;48.846;2.358;2024-02-16T08:25:07;2.33;;;1.40;;
84113;SDS011;74483;48.846;2.358;2024-02-16T08:27:33;2.22;;;1.50;;
84113;SDS011;74483;48.846;2.358;2024-02-16T08:29:59;3.22;;;1.45;;
84113;SDS011;74483;48.846;2.358;2024-02-16T08:32:26;1.45;;;1.33;;
84113;SDS011;74483;48.846;2.358;2024-02-16T08:34:52;3.35;;;1.40;;
84113;SDS011;74483;48.846;2.358;2024-02-16T08:37:18;1.80;;;1.40;;
84113;SDS011;74483;48.846;2.358;2024-02-16T08:39:44;1.67;;;1.20;;
84113;SDS011;74483;48.846;2.358;2024-02-16T08:42:09;2.15;;;1.23;;
84113;SDS011;74483;48.846;2.358;2024-02-16T08:44:36;2.15;;;1.40;;
84113;SDS011;74483;48.846;2.358;2024-02-16T08:47:03;2.00;;;1.20;;
84113;SDS011;74483;48.846;2.358;2024-02-16T08:49:29;2.22;;;1.40;;
84113;SDS011;74483;48.846;2.358;2024-02-16T08:51:56;1.70;;;1.30;;
84113;SDS011;74483;48.846;2.358;2024-02-16T08:54:21;1.42;;;1.13;;
84113;SDS011;74483;48.846;2.358;2024-02-16T08:56:47;2.80;;;1.40;;
84113;SDS011;74483;48.846;2.358;2024-02-16T08:59:13;1.50;;;1.20;;
84113;SDS011;74483;48.846;2.358;2024-02-16T09:01:39;1.38;;;1.10;;
84113;SDS011;74483;48.846;2.358;2024-02-16T09:04:05;1.85;;;1.20;;
84113;SDS011;74483;48.846;2.358;2024-02-16T09:06:31;1.85;;;1.23;;
84113;SDS011;74483;48.846;2.358;2024-02-16T09:08:59;1.13;;;1.00;;
84113;SDS011;74483;48.846;2.358;2024-02-16T09:11:25;2.03;;;1.30;;
84113;SDS011;74483;48.846;2.358;2024-02-16T09:13:51;2.05;;;1.27;;
84113;SDS011;74483;48.846;2.358;2024-02-16T09:16:17;1.30;;;1.20;;
84113;SDS011;74483;48.846;2.358;2024-02-16T09:18:42;2.08;;;1.10;;
84113;SDS011;74483;48.846;2.358;2024-02-16T09:21:08;1.30;;;1.00;;
84113;SDS011;74483;48.846;2.358;2024-02-16T09:23:34;2.03;;;1.10;;
84113;SDS011;74483;48.846;2.358;2024-02-16T09:26:01;2.08;;;1.13;;
84113;SDS011;74483;48.846;2.358;2024-02-16T09:28:29;1.98;;;1.20;;
84113;SDS011;74483;48.846;2.358;2024-02-16T09:30:55;1.83;;;1.35;;
84113;SDS011;74483;48.846;2.358;2024-02-16T09:33:21;5.20;;;1.23;;
84113;SDS011;74483;48.846;2.358;2024-02-16T09:35:50;3.08;;;1.23;;
84113;SDS011;74483;48.846;2.358;2024-02-16T09:38:16;2.17;;;1.27;;
84113;SDS011;74483;48.846;2.358;2024-02-16T09:40:42;3.55;;;1.33;;
84113;SDS011;74483;48.846;2.358;2024-02-16T09:43:09;1.60;;;0.93;;
84113;SDS011;74483;48.846;2.358;2024-02-16T09:45:34;3.97;;;1.05;;
84113;SDS011;74483;48.846;2.358;2024-02-16T09:48:00;3.90;;;1.10;;
84113;SDS011;74483;48.846;2.358;2024-02-16T09:50:28;1.98;;;1.15;;
84113;SDS011;74483;48.846;2.358;2024-02-16T09:52:54;2.53;;;1.23;;
84113;SDS011;74483;48.846;2.358;2024-02-16T09:55:21;2.03;;;1.27;;
84113;SDS011;74483;48.846;2.358;2024-02-16T09:57:47;2.58;;;1.30;;
84113;SDS011;74483;48.846;2.358;2024-02-16T10:00:23;3.28;;;1.40;;
84113;SDS011;74483;48.846;2.358;2024-02-16T10:02:48;1.75;;;1.20;;
84113;SDS011;74483;48.846;2.358;2024-02-16T10:05:15;2.08;;;1.20;;
84113;SDS011;74483;48.846;2.358;2024-02-16T10:07:45;1.88;;;1.00;;
84113;SDS011;74483;48.846;2.358;2024-02-16T10:12:50;2.42;;;1.15;;
84113;SDS011;74483;48.846;2.358;2024-02-16T10:15:26;3.05;;;1.25;;
84113;SDS011;74483;48.846;2.358;2024-02-16T10:20:46;1.60;;;1.10;;
84113;SDS011;74483;48.846;2.358;2024-02-16T10:23:12;3.53;;;1.00;;
84113;SDS011;74483;48.846;2.358;2024-02-16T10:25:38;1.83;;;1.10;;
84113;SDS011;74483;48.846;2.358;2024-02-16T10:28:08;2.22;;;0.95;;
84113;SDS011;74483;48.846;2.358;2024-02-16T10:30:40;1.90;;;1.02;;
84113;SDS011;74483;48.846;2.358;2024-02-16T10:33:09;1.45;;;0.95;;
84113;SDS011;74483;48.846;2.358;2024-02-16T10:35:37;1.80;;;1.13;;
84113;SDS011;74483;48.846;2.358;2024-02-16T10:38:04;1.58;;;0.90;;
84113;SDS011;74483;48.846;2.358;2024-02-16T10:40:38;2.53;;;1.10;;
84113;SDS011;74483;48.846;2.358;2024-02-16T10:43:05;2.20;;;1.02;;
84113;SDS011;74483;48.846;2.358;2024-02-16T10:45:35;1.63;;;0.85;;
84113;SDS011;74483;48.846;2.358;2024-02-16T10:48:02;1.98;;;0.90;;
84113;SDS011;74483;48.846;2.358;2024-02-16T10:50:35;1.83;;;0.80;;
84113;SDS011;74483;48.846;2.358;2024-02-16T10:53:10;2.75;;;1.00;;
84113;SDS011;74483;48.846;2.358;2024-02-16T10:55:39;2.25;;;1.00;;
84113;SDS011;74483;48.846;2.358;2024-02-16T10:58:07;1.33;;;0.85;;
84113;SDS011;74483;48.846;2.358;2024-02-16T11:00:33;1.20;;;0.90;;
84113;SDS011;74483;48.846;2.358;2024-02-16T11:03:01;1.83;;;1.00;;
84113;SDS011;74483;48.846;2.358;2024-02-16T11:05:41;2.90;;;0.88;;
84113;SDS011;74483;48.846;2.358;2024-02-16T11:08:16;1.83;;;0.95;;
84113;SDS011;74483;48.846;2.358;2024-02-16T11:11:02;2.90;;;1.00;;
84113;SDS011;74483;48.846;2.358;2024-02-16T11:13:31;1.45;;;1.10;;
84113;SDS011;74483;48.846;2.358;2024-02-16T11:18:30;1.08;;;0.90;;
84113;SDS011;74483;48.846;2.358;2024-02-16T11:21:00;1.65;;;0.95;;
84113;SDS011;74483;48.846;2.358;2024-02-16T11:23:27;1.63;;;1.02;;
84113;SDS011;74483;48.846;2.358;2024-02-16T11:25:54;1.13;;;0.90;;
84113;SDS011;74483;48.846;2.358;2024-02-16T11:28:25;2.00;;;1.30;;
84113;SDS011;74483;48.846;2.358;2024-02-16T11:30:52;2.47;;;0.90;;
84113;SDS011;74483;48.846;2.358;2024-02-16T11:33:17;0.95;;;0.80;;
84113;SDS011;74483;48.846;2.358;2024-02-16T11:35:52;0.70;;;0.70;;
84113;SDS011;74483;48.846;2.358;2024-02-16T11:38:27;1.33;;;0.80;;
84113;SDS011;74483;48.846;2.358;2024-02-16T11:41:05;3.28;;;0.90;;
84113;SDS011;74483;48.846;2.358;2024-02-16T11:43:34;1.95;;;1.10;;
84113;SDS011;74483;48.846;2.358;2024-02-16T11:46:10;2.38;;;1.30;;
84113;SDS011;74483;48.846;2.358;2024-02-16T11:48:39;1.80;;;1.02;;
84113;SDS011;74483;48.846;2.358;2024-02-16T11:51:05;1.35;;;0.90;;
84113;SDS011;74483;48.846;2.358;2024-02-16T11:53:31;1.48;;;1.20;;
84113;SDS011;74483;48.846;2.358;2024-02-16T11:55:58;1.90;;;0.88;;
84113;SDS011;74483;48.846;2.358;2024-02-16T11:58:25;2.10;;;1.00;;
84113;SDS011;74483;48.846;2.358;2024-02-16T12:00:51;1.77;;;1.27;;
84113;SDS011;74483;48.846;2.358;2024-02-16T12:03:21;1.35;;;1.10;;
84113;SDS011;74483;48.846;2.358;2024-02-16T12:08:23;2.05;;;1.10;;
84113;SDS011;74483;48.846;2.358;2024-02-16T12:10:56;1.10;;;1.00;;
84113;SDS011;74483;48.846;2.358;2024-02-16T12:13:22;1.38;;;1.08;;
84113;SDS011;74483;48.846;2.358;2024-02-16T12:15:49;1.27;;;1.00;;
84113;SDS011;74483;48.846;2.358;2024-02-16T12:21:03;4.70;;;1.52;;
84113;SDS011;74483;48.846;2.358;2024-02-16T12:23:35;3.17;;;1.10;;
84113;SDS011;74483;48.846;2.358;2024-02-16T12:26:01;2.45;;;1.23;;
84113;SDS011;74483;48.846;2.358;2024-02-16T12:28:28;3.05;;;1.40;;
84113;SDS011;74483;48.846;2.358;2024-02-16T12:30:56;1.92;;;1.05;;
84113;SDS011;74483;48.846;2.358;2024-02-16T12:33:23;1.83;;;1.27;;
84113;SDS011;74483;48.846;2.358;2024-02-16T12:35:48;3.17;;;1.20;;
84113;SDS011;74483;48.846;2.358;2024-02-16T12:38:14;2.58;;;1.40;;
84113;SDS011;74483;48.846;2.358;2024-02-16T12:40:42;2.63;;;1.27;;
84113;SDS011;74483;48.846;2.358;2024-02-16T12:43:08;3.22;;;1.30;;
84113;SDS011;74483;48.846;2.358;2024-02-16T12:45:36;2.70;;;1.40;;
84113;SDS011;74483;48.846;2.358;2024-02-16T12:48:02;2.33;;;1.38;;
84113;SDS011;74483;48.846;2.358;2024-02-16T12:50:29;4.15;;;1.48;;
84113;SDS011;74483;48.846;2.358;2024-02-16T12:52:55;2.17;;;1.35;;
84113;SDS011;74483;48.846;2.358;2024-02-16T12:55:22;3.08;;;1.35;;
84113;SDS011;74483;48.846;2.358;2024-02-16T12:57:48;2.28;;;1.42;;
84113;SDS011;74483;48.846;2.358;2024-02-16T13:00:15;3.38;;;1.48;;
84113;SDS011;74483;48.846;2.358;2024-02-16T13:02:40;3.03;;;1.30;;
84113;SDS011;74483;48.846;2.358;2024-02-16T13:05:06;1.85;;;1.30;;
84113;SDS011;74483;48.846;2.358;2024-02-16T13:07:33;1.58;;;1.40;;
84113;SDS011;74483;48.846;2.358;2024-02-16T13:09:59;2.05;;;1.35;;
84113;SDS011;74483;48.846;2.358;2024-02-16T13:12:24;2.17;;;1.20;;
84113;SDS011;74483;48.846;2.358;2024-02-16T13:14:50;1.92;;;1.30;;
84113;SDS011;74483;48.846;2.358;2024-02-16T13:17:16;2.90;;;1.20;;
84113;SDS011;74483;48.846;2.358;2024-02-16T13:19:42;2.72;;;1.50;;
84113;SDS011;74483;48.846;2.358;2024-02-16T13:22:07;3.15;;;1.40;;
84113;SDS011;74483;48.846;2.358;2024-02-16T13:24:33;2.08;;;1.20;;
84113;SDS011;74483;48.846;2.358;2024-02-16T13:26:59;2.00;;;1.23;;
84113;SDS011;74483;48.846;2.358;2024-02-16T13:29:25;2.08;;;1.23;;
84113;SDS011;74483;48.846;2.358;2024-02-16T13:31:50;1.60;;;1.20;;
84113;SDS011;74483;48.846;2.358;2024-02-16T13:34:16;2.83;;;1.60;;
84113;SDS011;74483;48.846;2.358;2024-02-16T13:36:42;3.03;;;1.25;;
84113;SDS011;74483;48.846;2.358;2024-02-16T13:39:07;3.72;;;1.50;;
84113;SDS011;74483;48.846;2.358;2024-02-16T13:41:33;1.98;;;1.27;;
84113;SDS011;74483;48.846;2.358;2024-02-16T13:43:59;2.78;;;1.55;;
84113;SDS011;74483;48.846;2.358;2024-02-16T13:46:25;4.30;;;1.58;;
84113;SDS011;74483;48.846;2.358;2024-02-16T13:48:50;2.60;;;1.42;;
84113;SDS011;74483;48.846;2.358;2024-02-16T13:51:16;3.60;;;1.45;;
84113;SDS011;74483;48.846;2.358;2024-02-16T13:53:42;2.63;;;1.58;;
84113;SDS011;74483;48.846;2.358;2024-02-16T13:56:08;3.15;;;1.50;;
84113;SDS011;74483;48.846;2.358;2024-02-16T13:58:33;4.25;;;1.65;;
84113;SDS011;74483;48.846;2.358;2024-02-16T14:00:59;3.67;;;1.58;;
84113;SDS011;74483;48.846;2.358;2024-02-16T14:03:28;4.05;;;1.33;;
84113;SDS011;74483;48.846;2.358;2024-02-16T14:05:53;4.82;;;1.60;;
84113;SDS011;74483;48.846;2.358;2024-02-16T14:08:19;3.75;;;1.52;;
84113;SDS011;74483;48.846;2.358;2024-02-16T14:10:45;2.40;;;1.40;;
84113;SDS011;74483;48.846;2.358;2024-02-16T14:13:10;2.22;;;1.58;;
84113;SDS011;74483;48.846;2.358;2024-02-16T14:15:36;3.45;;;1.40;;
84113;SDS011;74483;48.846;2.358;2024-02-16T14:18:02;3.03;;;1.33;;
84113;SDS011;74483;48.846;2.358;2024-02-16T14:20:28;2.55;;;1.50;;
84113;SDS011;74483;48.846;2.358;2024-02-16T14:22:54;3.53;;;1.70;;
84113;SDS011;74483;48.846;2.358;2024-02-16T14:25:20;2.95;;;1.40;;
84113;SDS011;74483;48.846;2.358;2024-02-16T14:27:45;4.00;;;1.30;;
84113;SDS011;74483;48.846;2.358;2024-02-16T14:30:12;3.15;;;1.58;;
84113;SDS011;74483;48.846;2.358;2024-02-16T14:32:38;1.90;;;1.38;;
84113;SDS011;74483;48.846;2.358;2024-02-16T14:35:04;3.05;;;1.60;;
84113;SDS011;74483;48.846;2.358;2024-02-16T14:37:32;2.53;;;1.50;;
84113;SDS011;74483;48.846;2.358;2024-02-16T14:39:58;3.60;;;1.40;;
84113;SDS011;74483;48.846;2.358;2024-02-16T14:42:24;3.22;;;1.38;;
84113;SDS011;74483;48.846;2.358;2024-02-16T14:44:50;2.75;;;1.52;;
84113;SDS011;74483;48.846;2.358;2024-02-16T14:47:16;4.07;;;1.55;;
84113;SDS011;74483;48.846;2.358;2024-02-16T14:49:43;3.10;;;1.52;;
84113;SDS011;74483;48.846;2.358;2024-02-16T14:52:08;1.40;;;1.30;;
84113;SDS011;74483;48.846;2.358;2024-02-16T14:54:34;3.13;;;1.30;;
84113;SDS011;74483;48.846;2.358;2024-02-16T14:57:00;2.92;;;1.50;;